Time;durP1;ratioP1;P1;durP2;ratioP2;P2;SDS_P1;SDS_P2;PMS_P1;PMS_P2;Temp;Humidity;BMP_temperature;BMP_pressure;BME280_temperature;BME280_humidity;BME280_pressure;Samples;Min_cycle;Max_cycle;Signal;HPM_P1;HPM_P2
2021/06/30 00:00:48;;;;;;;1.50;1.40;;;16.60;1.00;;;;;;5068203;28;20082;-78
2021/06/30 00:03:13;;;;;;;1.55;1.10;;;16.60;1.00;;;;;;5043781;28;20036;-79
2021/06/30 00:05:39;;;;;;;1.80;0.88;;;16.60;1.00;;;;;;5064137;28;20033;-79
2021/06/30 00:08:05;;;;;;;1.42;1.10;;;16.60;1.00;;;;;;5061957;28;20025;-79
2021/06/30 00:10:30;;;;;;;1.75;1.00;;;16.60;1.00;;;;;;5069027;28;20485;-80
2021/06/30 00:12:56;;;;;;;1.85;1.08;;;16.60;1.00;;;;;;5044089;28;20029;-79
2021/06/30 00:15:25;;;;;;;1.45;1.00;;;16.60;1.00;;;;;;5038888;28;20021;-79
2021/06/30 00:17:50;;;;;;;0.90;0.90;;;16.70;1.00;;;;;;5050572;28;20060;-79
2021/06/30 00:20:16;;;;;;;5.30;1.00;;;16.70;1.00;;;;;;5076736;28;20032;-79
2021/06/30 00:22:42;;;;;;;1.83;1.02;;;16.80;1.00;;;;;;5074749;28;20036;-79
2021/06/30 00:25:08;;;;;;;1.40;0.90;;;16.80;1.00;;;;;;5055485;28;20460;-78
2021/06/30 00:27:35;;;;;;;2.03;1.00;;;16.90;1.00;;;;;;5055933;28;20115;-79
2021/06/30 00:30:00;;;;;;;1.08;0.98;;;17.00;1.00;;;;;;5058377;28;20090;-80
2021/06/30 00:32:26;;;;;;;0.85;0.85;;;17.00;1.00;;;;;;5054397;28;20024;-78
2021/06/30 00:34:52;;;;;;;2.40;0.93;;;17.00;1.00;;;;;;5069547;28;20048;-79
2021/06/30 00:37:18;;;;;;;1.13;0.80;;;17.00;1.00;;;;;;5066755;28;20031;-80
2021/06/30 00:39:43;;;;;;;0.60;0.60;;;17.10;1.00;;;;;;5052489;28;20041;-79
2021/06/30 00:42:09;;;;;;;2.03;0.80;;;17.00;1.00;;;;;;5066085;28;20103;-79
2021/06/30 00:44:35;;;;;;;2.40;0.80;;;17.00;1.00;;;;;;5058706;28;20435;-79
2021/06/30 00:47:02;;;;;;;2.38;0.90;;;16.90;1.00;;;;;;5065803;28;20024;-79
2021/06/30 00:49:27;;;;;;;3.53;0.80;;;17.00;1.00;;;;;;5058147;28;20064;-79
2021/06/30 00:51:53;;;;;;;1.17;1.00;;;16.90;1.00;;;;;;5058739;28;20022;-79
2021/06/30 00:54:19;;;;;;;0.85;0.70;;;17.00;1.00;;;;;;5051212;28;20401;-79
2021/06/30 00:56:45;;;;;;;4.30;0.70;;;17.00;1.00;;;;;;5060095;28;20029;-79
2021/06/30 00:59:12;;;;;;;0.90;0.80;;;17.00;1.00;;;;;;5060080;28;20032;-78
2021/06/30 01:01:39;;;;;;;1.42;0.85;;;16.90;1.00;;;;;;5057705;28;20403;-79
2021/06/30 01:04:05;;;;;;;0.50;0.50;;;17.00;1.00;;;;;;5051206;28;20081;-79
2021/06/30 01:06:31;;;;;;;1.30;0.93;;;17.00;1.00;;;;;;5062829;28;20036;-79
2021/06/30 01:09:03;;;;;;;1.52;0.70;;;17.00;1.00;;;;;;5048171;28;20479;-78
2021/06/30 01:11:29;;;;;;;1.38;0.82;;;17.00;1.00;;;;;;5046706;28;20056;-79
2021/06/30 01:13:55;;;;;;;1.23;0.80;;;17.00;1.00;;;;;;5042074;28;20036;-80
2021/06/30 01:16:20;;;;;;;2.03;0.70;;;16.90;1.00;;;;;;5062546;28;20482;-79
2021/06/30 01:18:46;;;;;;;2.10;0.88;;;17.00;1.00;;;;;;5059465;28;20021;-79
2021/06/30 01:21:12;;;;;;;1.13;0.70;;;17.00;1.00;;;;;;5056929;28;20028;-79
2021/06/30 01:23:39;;;;;;;2.17;0.63;;;17.10;1.00;;;;;;5057275;28;20074;-79
2021/06/30 01:26:06;;;;;;;0.68;0.60;;;17.00;1.00;;;;;;5044795;28;20029;-78
2021/06/30 01:28:32;;;;;;;1.27;0.85;;;17.00;1.00;;;;;;5057477;28;20374;-79
2021/06/30 01:30:58;;;;;;;0.95;0.70;;;16.90;1.00;;;;;;5038401;28;20332;-78
2021/06/30 01:33:24;;;;;;;0.77;0.70;;;17.00;1.00;;;;;;5057484;28;20112;-79
2021/06/30 01:35:51;;;;;;;0.80;0.60;;;16.90;1.00;;;;;;5063316;28;20111;-79
2021/06/30 01:38:21;;;;;;;3.70;0.80;;;17.00;1.00;;;;;;5065473;28;20027;-78
2021/06/30 01:40:48;;;;;;;0.47;0.47;;;17.00;1.00;;;;;;5066695;28;20482;-79
2021/06/30 01:43:13;;;;;;;0.68;0.65;;;16.90;1.00;;;;;;5062088;28;20375;-80
2021/06/30 01:45:39;;;;;;;4.88;0.75;;;16.90;1.00;;;;;;5061583;28;20036;-78
2021/06/30 01:48:04;;;;;;;1.85;0.70;;;16.90;1.00;;;;;;5060626;28;20478;-79
2021/06/30 01:50:30;;;;;;;0.57;0.50;;;16.80;1.00;;;;;;5052620;28;20028;-79
2021/06/30 01:52:56;;;;;;;0.75;0.45;;;16.80;1.00;;;;;;5061273;28;20037;-79
2021/06/30 01:55:21;;;;;;;0.40;0.40;;;16.70;1.00;;;;;;5061389;28;20054;-79
2021/06/30 01:57:50;;;;;;;2.00;0.50;;;16.60;1.00;;;;;;5037585;28;20028;-79
2021/06/30 02:00:19;;;;;;;0.70;0.60;;;16.60;1.00;;;;;;5039504;28;20036;-80
2021/06/30 02:02:46;;;;;;;0.52;0.50;;;16.60;1.00;;;;;;5056409;28;20025;-78
2021/06/30 02:05:17;;;;;;;0.50;0.40;;;16.50;1.00;;;;;;5054487;28;20017;-78
2021/06/30 02:07:48;;;;;;;1.27;0.60;;;16.50;1.00;;;;;;5059782;28;20020;-79
2021/06/30 02:10:15;;;;;;;0.45;0.35;;;16.40;1.00;;;;;;5077420;28;20128;-77
2021/06/30 02:12:42;;;;;;;0.73;0.50;;;16.40;1.00;;;;;;5081675;28;20517;-79
2021/06/30 02:15:19;;;;;;;0.63;0.40;;;16.20;1.00;;;;;;5066116;28;20024;-79
2021/06/30 02:17:45;;;;;;;0.40;0.40;;;16.20;1.00;;;;;;5055614;28;20062;-79
2021/06/30 02:20:12;;;;;;;1.42;0.80;;;16.20;1.00;;;;;;5055117;28;20025;-79
2021/06/30 02:22:39;;;;;;;1.30;0.50;;;16.00;1.00;;;;;;5065065;28;20025;-81
2021/06/30 02:25:10;;;;;;;1.13;1.02;;;15.90;1.00;;;;;;5039879;28;20032;-79
2021/06/30 02:27:37;;;;;;;0.73;0.73;;;15.90;1.00;;;;;;5058128;28;20028;-79
2021/06/30 02:30:06;;;;;;;1.38;0.50;;;15.80;1.00;;;;;;5055748;28;20033;-80
2021/06/30 02:32:31;;;;;;;0.35;0.35;;;15.80;1.00;;;;;;5046345;28;20032;-78
2021/06/30 02:34:57;;;;;;;0.57;0.40;;;15.80;1.00;;;;;;5067779;28;20032;-80
2021/06/30 02:37:23;;;;;;;0.60;0.55;;;15.80;1.00;;;;;;5058124;28;20029;-79
2021/06/30 02:39:49;;;;;;;0.50;0.38;;;15.80;1.00;;;;;;5068302;28;20497;-79
2021/06/30 02:42:14;;;;;;;1.10;0.40;;;15.70;1.00;;;;;;5070735;28;20032;-79
2021/06/30 02:44:40;;;;;;;0.32;0.32;;;15.70;1.00;;;;;;5068721;28;20024;-82
2021/06/30 02:47:06;;;;;;;0.40;0.38;;;15.80;1.00;;;;;;5064619;28;20630;-81
2021/06/30 02:49:31;;;;;;;0.40;0.30;;;15.70;1.00;;;;;;5069203;28;20061;-80
2021/06/30 02:51:57;;;;;;;0.63;0.40;;;15.60;1.00;;;;;;5065754;28;20021;-79
2021/06/30 02:54:23;;;;;;;1.70;0.40;;;15.80;1.00;;;;;;5056547;28;20038;-79
2021/06/30 02:56:48;;;;;;;0.40;0.40;;;15.60;1.00;;;;;;5057469;28;20029;-80
2021/06/30 02:59:14;;;;;;;0.80;0.40;;;15.60;1.00;;;;;;5046648;28;20025;-81
2021/06/30 03:01:39;;;;;;;1.85;0.50;;;15.60;1.00;;;;;;5062719;28;20454;-80
2021/06/30 03:04:05;;;;;;;0.75;0.38;;;15.60;1.00;;;;;;5063481;28;20028;-78
2021/06/30 03:06:30;;;;;;;0.95;0.20;;;15.50;1.00;;;;;;5072041;28;20056;-78
2021/06/30 03:08:56;;;;;;;0.30;0.30;;;15.50;1.00;;;;;;5060123;28;20453;-79
2021/06/30 03:11:21;;;;;;;0.70;0.60;;;15.50;1.00;;;;;;5067998;28;20024;-79
2021/06/30 03:13:47;;;;;;;0.52;0.30;;;15.60;1.00;;;;;;5044045;28;20029;-79
2021/06/30 03:16:15;;;;;;;1.98;0.30;;;15.60;1.00;;;;;;5069412;28;20020;-78
2021/06/30 03:18:42;;;;;;;0.40;0.38;;;15.60;1.00;;;;;;5069628;28;20499;-80
2021/06/30 03:21:09;;;;;;;0.65;0.30;;;15.60;1.00;;;;;;5070149;28;20024;-80
2021/06/30 03:23:34;;;;;;;0.20;0.20;;;15.50;1.00;;;;;;5061071;28;20025;-79
2021/06/30 03:26:00;;;;;;;0.28;0.28;;;15.40;1.00;;;;;;5064393;28;20035;-79
2021/06/30 03:28:26;;;;;;;0.30;0.30;;;15.50;1.00;;;;;;5058655;28;20021;-79
2021/06/30 03:30:52;;;;;;;0.30;0.30;;;15.40;1.00;;;;;;5051594;28;20509;-80
2021/06/30 03:33:17;;;;;;;0.45;0.40;;;15.40;1.00;;;;;;5063239;28;20090;-79
2021/06/30 03:35:43;;;;;;;0.30;0.30;;;15.50;1.00;;;;;;5064911;28;20081;-79
2021/06/30 03:38:08;;;;;;;0.40;0.25;;;15.40;1.00;;;;;;5071567;28;20055;-79
2021/06/30 03:40:34;;;;;;;0.50;0.28;;;15.40;1.00;;;;;;5065119;28;20021;-79
2021/06/30 03:42:59;;;;;;;0.50;0.30;;;15.30;1.00;;;;;;5071377;28;20021;-80
2021/06/30 03:45:25;;;;;;;3.10;0.90;;;15.30;1.00;;;;;;5068276;28;20085;-80
2021/06/30 03:47:50;;;;;;;0.90;0.50;;;15.30;1.00;;;;;;5064573;28;20129;-79
2021/06/30 03:50:16;;;;;;;0.40;0.40;;;15.30;1.00;;;;;;5085735;28;20021;-78
2021/06/30 03:52:41;;;;;;;1.65;0.40;;;15.30;1.00;;;;;;5046701;28;20508;-81
2021/06/30 03:55:08;;;;;;;0.40;0.32;;;15.40;1.00;;;;;;5063761;28;20112;-79
2021/06/30 03:57:35;;;;;;;0.63;0.30;;;15.50;1.00;;;;;;5068302;28;20021;-79
2021/06/30 04:00:01;;;;;;;0.40;0.40;;;15.40;1.00;;;;;;5046976;28;20043;-78
2021/06/30 04:02:26;;;;;;;0.30;0.30;;;15.40;1.00;;;;;;5076238;28;20032;-79
2021/06/30 04:04:52;;;;;;;0.40;0.40;;;15.30;1.00;;;;;;5082949;28;20028;-79
2021/06/30 04:07:17;;;;;;;1.52;0.40;;;15.30;1.00;;;;;;5076077;28;20060;-78
2021/06/30 04:09:43;;;;;;;1.30;0.20;;;15.40;1.00;;;;;;5084052;28;20020;-77
2021/06/30 04:12:09;;;;;;;0.30;0.30;;;15.30;1.00;;;;;;5090869;28;20024;-77
2021/06/30 04:14:34;;;;;;;0.57;0.50;;;15.40;1.00;;;;;;5094170;28;20087;-78
2021/06/30 04:17:00;;;;;;;1.45;0.40;;;15.40;1.00;;;;;;5093848;28;20064;-78
2021/06/30 04:19:25;;;;;;;0.57;0.30;;;15.40;1.00;;;;;;5077350;28;20033;-78
2021/06/30 04:21:51;;;;;;;1.08;0.30;;;15.40;1.00;;;;;;5084708;28;20029;-77
2021/06/30 04:24:16;;;;;;;1.27;0.28;;;15.40;1.00;;;;;;5088265;28;20021;-78
2021/06/30 04:26:42;;;;;;;0.40;0.30;;;15.40;1.00;;;;;;5082659;28;20028;-79
2021/06/30 04:29:08;;;;;;;0.30;0.30;;;15.50;1.00;;;;;;5084986;28;20044;-78
2021/06/30 04:31:34;;;;;;;0.52;0.30;;;15.40;1.00;;;;;;5095483;28;20017;-78
2021/06/30 04:34:00;;;;;;;0.60;0.32;;;15.60;1.00;;;;;;5068849;28;20052;-79
2021/06/30 04:36:26;;;;;;;0.95;0.60;;;15.50;1.00;;;;;;5060110;28;20033;-80
2021/06/30 04:38:51;;;;;;;1.17;0.40;;;15.50;1.00;;;;;;5066997;28;20438;-78
2021/06/30 04:41:17;;;;;;;1.20;0.30;;;15.50;1.00;;;;;;5064407;28;20021;-79
2021/06/30 04:43:42;;;;;;;0.60;0.32;;;15.60;1.00;;;;;;5081602;28;20036;-78
2021/06/30 04:46:08;;;;;;;0.88;0.40;;;15.60;1.00;;;;;;5080064;28;20032;-78
2021/06/30 04:48:34;;;;;;;0.40;0.35;;;15.60;1.00;;;;;;5064738;28;20084;-78
2021/06/30 04:51:01;;;;;;;0.30;0.28;;;15.60;1.00;;;;;;5075836;28;20043;-79
2021/06/30 04:53:27;;;;;;;1.80;0.47;;;15.70;1.00;;;;;;5059819;28;20033;-78
2021/06/30 04:55:53;;;;;;;4.10;0.98;;;15.70;1.00;;;;;;5085524;28;20033;-77
2021/06/30 04:58:19;;;;;;;0.63;0.40;;;15.80;1.00;;;;;;5085185;28;20036;-78
2021/06/30 05:00:44;;;;;;;0.40;0.40;;;15.90;1.00;;;;;;5090326;28;20043;-78
2021/06/30 05:03:10;;;;;;;1.27;0.30;;;15.90;1.00;;;;;;5085999;28;20021;-77
2021/06/30 05:05:36;;;;;;;0.40;0.40;;;16.00;1.00;;;;;;5070978;28;20005;-78
2021/06/30 05:08:02;;;;;;;0.82;0.40;;;16.00;1.00;;;;;;5084980;28;20040;-79
2021/06/30 05:10:28;;;;;;;0.30;0.30;;;16.10;1.00;;;;;;5076035;28;20017;-79
2021/06/30 05:12:54;;;;;;;1.13;0.70;;;16.20;99.90;;;;;;5072850;28;20028;-79
2021/06/30 05:15:22;;;;;;;1.02;0.55;;;16.20;99.90;;;;;;5084040;28;20025;-78
2021/06/30 05:17:48;;;;;;;0.55;0.40;;;16.30;99.90;;;;;;5062129;28;20091;-80
2021/06/30 05:20:14;;;;;;;1.65;0.50;;;16.40;99.90;;;;;;5041264;28;20048;-80
2021/06/30 05:22:40;;;;;;;0.93;0.50;;;16.40;99.90;;;;;;5061334;28;20027;-80
2021/06/30 05:25:05;;;;;;;2.53;0.47;;;16.40;99.90;;;;;;5084994;28;20021;-78
2021/06/30 05:27:31;;;;;;;2.92;0.50;;;16.80;99.90;;;;;;5087487;28;20047;-79
2021/06/30 05:29:56;;;;;;;1.48;0.38;;;17.20;99.90;;;;;;5067736;28;20508;-80
2021/06/30 05:32:22;;;;;;;3.53;0.40;;;17.20;99.90;;;;;;5070350;28;20369;-80
2021/06/30 05:34:47;;;;;;;1.05;0.40;;;17.30;99.90;;;;;;5049542;28;20449;-80
2021/06/30 05:37:13;;;;;;;0.68;0.40;;;17.50;99.90;;;;;;5051747;28;20053;-79
2021/06/30 05:39:39;;;;;;;2.45;0.38;;;17.50;99.90;;;;;;5063144;28;20047;-79
2021/06/30 05:42:04;;;;;;;1.40;0.43;;;17.50;73.20;;;;;;5057563;28;20107;-79
2021/06/30 05:44:30;;;;;;;1.48;0.40;;;17.50;99.90;;;;;;5058668;28;20033;-79
2021/06/30 05:46:55;;;;;;;0.82;0.40;;;17.40;99.90;;;;;;5065220;28;20409;-79
2021/06/30 05:49:21;;;;;;;1.85;0.98;;;17.60;38.80;;;;;;5053291;28;20110;-79
2021/06/30 05:51:46;;;;;;;0.57;0.40;;;17.40;99.90;;;;;;5053684;28;20029;-79
2021/06/30 05:54:12;;;;;;;2.40;0.50;;;17.60;99.90;;;;;;5061611;28;20021;-80
2021/06/30 05:56:38;;;;;;;2.35;0.40;;;17.50;4.20;;;;;;5056735;28;20104;-80
2021/06/30 05:59:05;;;;;;;1.27;0.80;;;17.50;24.60;;;;;;5044131;28;20416;-80
2021/06/30 06:01:31;;;;;;;0.43;0.40;;;17.60;1.00;;;;;;5064313;28;20024;-80
2021/06/30 06:03:57;;;;;;;0.55;0.20;;;17.50;1.00;;;;;;5062483;28;20022;-80
2021/06/30 06:06:22;;;;;;;1.40;0.52;;;17.60;1.00;;;;;;5067493;28;20020;-80
2021/06/30 06:08:48;;;;;;;0.47;0.35;;;17.60;86.80;;;;;;5052883;28;20033;-79
2021/06/30 06:11:14;;;;;;;0.40;0.40;;;17.70;1.00;;;;;;5057918;28;20041;-80
2021/06/30 06:13:41;;;;;;;0.80;0.50;;;17.80;1.00;;;;;;5061812;28;20075;-79
2021/06/30 06:16:08;;;;;;;2.70;0.50;;;17.90;1.00;;;;;;5068527;28;20116;-80
2021/06/30 06:18:34;;;;;;;1.15;0.50;;;17.90;99.90;;;;;;5052222;28;20043;-80
2021/06/30 06:21:00;;;;;;;1.63;0.30;;;17.80;99.90;;;;;;5065159;28;20084;-79
2021/06/30 06:23:25;;;;;;;1.65;0.55;;;17.60;1.00;;;;;;5064717;28;20428;-80
2021/06/30 06:25:51;;;;;;;1.75;0.85;;;17.70;1.00;;;;;;5054660;28;20438;-80
2021/06/30 06:28:16;;;;;;;1.40;0.52;;;17.90;1.00;;;;;;5061968;28;20025;-79
2021/06/30 06:30:42;;;;;;;0.30;0.30;;;17.90;99.90;;;;;;5056369;28;20029;-80
2021/06/30 06:33:07;;;;;;;1.50;0.50;;;17.90;1.00;;;;;;5065532;28;20106;-79
2021/06/30 06:35:42;;;;;;;0.40;0.40;;;18.00;99.90;;;;;;5058374;28;20052;-80
2021/06/30 06:38:08;;;;;;;0.98;0.30;;;18.30;99.90;;;;;;5056367;28;20029;-79
2021/06/30 06:40:33;;;;;;;6.43;0.50;;;18.50;99.90;;;;;;5053790;28;20035;-80
2021/06/30 06:42:59;;;;;;;1.25;0.35;;;18.50;95.00;;;;;;5060162;28;20025;-79
2021/06/30 06:45:27;;;;;;;1.45;0.50;;;18.70;1.00;;;;;;5059607;28;20103;-80
2021/06/30 06:47:54;;;;;;;0.73;0.40;;;18.90;99.90;;;;;;5054734;28;20353;-80
2021/06/30 06:50:19;;;;;;;0.73;0.40;;;19.20;12.80;;;;;;5053539;28;20071;-79
2021/06/30 06:52:45;;;;;;;1.17;0.38;;;19.10;1.00;;;;;;5065843;28;20020;-79
2021/06/30 06:55:14;;;;;;;1.48;0.52;;;19.30;99.90;;;;;;5065547;28;20393;-79
2021/06/30 06:57:39;;;;;;;0.25;0.20;;;19.10;99.90;;;;;;5058845;28;20393;-80
2021/06/30 07:00:07;;;;;;;0.75;0.30;;;19.10;47.40;;;;;;5054837;28;20025;-78
2021/06/30 07:02:33;;;;;;;0.32;0.32;;;19.20;1.00;;;;;;5054062;28;20021;-79
2021/06/30 07:04:58;;;;;;;0.80;0.40;;;19.20;99.90;;;;;;5054869;28;20033;-79
2021/06/30 07:07:24;;;;;;;0.38;0.35;;;19.40;99.90;;;;;;5066320;28;20047;-79
2021/06/30 07:09:50;;;;;;;1.10;0.40;;;19.40;99.90;;;;;;5063964;28;20024;-80
2021/06/30 07:12:15;;;;;;;0.93;0.40;;;19.60;1.00;;;;;;5064775;28;20471;-80
2021/06/30 07:14:42;;;;;;;0.75;0.30;;;19.90;99.90;;;;;;5065292;28;20052;-79
2021/06/30 07:17:08;;;;;;;0.20;0.20;;;20.20;99.90;;;;;;5043791;28;20533;-80
2021/06/30 07:19:33;;;;;;;0.95;0.30;;;20.50;99.90;;;;;;5040163;28;20096;-80
2021/06/30 07:21:59;;;;;;;4.60;0.45;;;20.60;99.90;;;;;;5049880;28;20051;-81
2021/06/30 07:24:24;;;;;;;0.90;0.20;;;20.70;99.90;;;;;;5064968;28;20094;-79
2021/06/30 07:26:50;;;;;;;0.70;0.40;;;20.40;1.00;;;;;;5059744;28;20097;-80
2021/06/30 07:29:19;;;;;;;0.80;0.38;;;20.10;1.00;;;;;;5066996;28;20094;-79
2021/06/30 07:31:44;;;;;;;1.15;0.40;;;20.10;1.00;;;;;;5057440;28;20028;-79
2021/06/30 07:34:10;;;;;;;0.88;0.47;;;19.90;1.00;;;;;;5068277;28;20112;-81
2021/06/30 07:36:39;;;;;;;0.20;0.20;;;20.00;6.10;;;;;;5057770;28;20020;-80
2021/06/30 07:39:08;;;;;;;0.80;0.30;;;20.00;1.00;;;;;;5066693;28;20478;-79
2021/06/30 07:41:41;;;;;;;0.25;0.25;;;20.10;1.00;;;;;;5072275;28;20016;-80
2021/06/30 07:44:07;;;;;;;0.32;0.30;;;20.30;1.00;;;;;;5072309;28;20025;-81
2021/06/30 07:46:33;;;;;;;0.32;0.20;;;20.80;99.90;;;;;;5075027;28;20025;-80
2021/06/30 07:48:59;;;;;;;0.30;0.30;;;20.80;1.00;;;;;;5061514;28;20056;-83
2021/06/30 07:51:32;;;;;;;0.28;0.20;;;20.20;99.90;;;;;;5069832;28;20032;-81
2021/06/30 07:53:58;;;;;;;0.25;0.25;;;20.00;1.00;;;;;;5060578;28;20090;-80
2021/06/30 07:56:39;;;;;;;0.65;0.20;;;20.10;99.90;;;;;;5065032;28;20103;-79
2021/06/30 07:59:10;;;;;;;0.45;0.30;;;20.20;99.90;;;;;;5032511;28;20406;-80
2021/06/30 08:01:36;;;;;;;0.50;0.20;;;20.40;99.90;;;;;;5067198;28;20021;-80
2021/06/30 08:04:33;;;;;;;0.20;0.20;;;20.70;99.90;;;;;;5067487;28;20367;-83
2021/06/30 08:06:59;;;;;;;0.40;0.30;;;20.60;1.00;;;;;;5053749;28;20036;-82
2021/06/30 08:09:27;;;;;;;2.50;0.38;;;20.80;1.00;;;;;;5051899;28;20063;-80
2021/06/30 08:11:52;;;;;;;0.20;0.20;;;20.90;1.00;;;;;;5065497;28;20044;-80
2021/06/30 08:14:18;;;;;;;0.40;0.20;;;21.50;1.00;;;;;;5067756;28;20108;-80
2021/06/30 08:16:44;;;;;;;2.72;0.35;;;21.60;1.00;;;;;;5062438;28;20025;-79
2021/06/30 08:19:10;;;;;;;0.20;0.20;;;21.50;99.90;;;;;;5050566;28;20071;-81
2021/06/30 08:21:36;;;;;;;0.20;0.20;;;21.20;99.90;;;;;;5065844;28;20025;-80
2021/06/30 08:24:01;;;;;;;0.52;0.30;;;21.20;99.90;;;;;;5058652;28;20417;-79
2021/06/30 08:26:27;;;;;;;0.43;0.30;;;20.50;99.90;;;;;;5055101;28;20030;-79
2021/06/30 08:28:53;;;;;;;1.45;0.30;;;20.60;99.90;;;;;;5064134;28;20049;-79
2021/06/30 08:31:18;;;;;;;0.20;0.20;;;20.80;99.90;;;;;;5067717;28;20024;-78
2021/06/30 08:33:44;;;;;;;2.60;0.28;;;20.80;99.90;;;;;;5073834;28;20108;-79
2021/06/30 08:36:09;;;;;;;0.30;0.30;;;20.70;99.90;;;;;;5067775;28;20035;-78
2021/06/30 08:38:35;;;;;;;1.55;0.20;;;20.50;99.90;;;;;;5059725;28;20074;-79
2021/06/30 08:41:02;;;;;;;1.35;0.30;;;20.20;99.90;;;;;;5057807;28;20086;-79
2021/06/30 08:43:28;;;;;;;0.65;0.20;;;20.10;99.90;;;;;;5047054;28;20024;-81
2021/06/30 08:45:54;;;;;;;0.17;0.17;;;19.80;99.90;;;;;;5064299;28;20067;-79
2021/06/30 08:48:20;;;;;;;0.35;0.20;;;19.80;1.00;;;;;;5057464;28;20028;-81
2021/06/30 08:50:47;;;;;;;0.20;0.20;;;19.70;1.00;;;;;;5058023;28;20028;-80
2021/06/30 08:53:14;;;;;;;0.20;0.20;;;19.90;1.00;;;;;;5039342;28;20488;-79
2021/06/30 08:55:46;;;;;;;0.22;0.20;;;19.80;1.00;;;;;;5060938;28;20048;-79
2021/06/30 08:58:13;;;;;;;1.65;0.30;;;20.10;1.00;;;;;;5053876;28;20510;-79
2021/06/30 09:00:41;;;;;;;0.38;0.20;;;20.30;99.90;;;;;;5068081;28;20051;-78
2021/06/30 09:03:12;;;;;;;0.43;0.22;;;20.00;1.00;;;;;;5072232;28;20096;-80
2021/06/30 09:08:34;;;;;;;1.35;0.20;;;20.50;1.00;;;;;;5054936;28;20029;-79
2021/06/30 09:11:19;;;;;;;0.20;0.20;;;20.40;1.00;;;;;;5050637;28;20062;-78
2021/06/30 09:13:46;;;;;;;0.90;0.35;;;20.10;1.00;;;;;;5061191;28;20396;-79
2021/06/30 09:16:13;;;;;;;1.77;0.30;;;19.80;1.00;;;;;;5071775;28;20131;-79
2021/06/30 09:18:41;;;;;;;2.60;0.30;;;19.80;1.00;;;;;;5067950;28;20060;-80
2021/06/30 09:21:27;;;;;;;0.70;0.20;;;19.70;1.00;;;;;;5058370;28;20047;-79
2021/06/30 09:24:02;;;;;;;0.20;0.20;;;19.70;1.00;;;;;;5047426;28;20401;-80
2021/06/30 09:26:31;;;;;;;0.20;0.20;;;19.80;1.00;;;;;;5053092;28;20051;-79
2021/06/30 09:29:03;;;;;;;0.25;0.25;;;19.80;99.90;;;;;;5062057;28;20021;-79
2021/06/30 09:31:29;;;;;;;0.20;0.20;;;20.00;99.90;;;;;;5049406;28;20025;-78
2021/06/30 09:33:56;;;;;;;0.20;0.20;;;19.80;99.90;;;;;;5060154;28;20037;-79
2021/06/30 09:36:23;;;;;;;0.75;0.40;;;20.00;99.90;;;;;;5066352;28;20040;-78
2021/06/30 09:38:50;;;;;;;0.65;0.20;;;19.90;99.90;;;;;;5039718;28;20024;-78
2021/06/30 09:41:30;;;;;;;0.20;0.20;;;20.20;99.90;;;;;;5068727;28;20031;-80
2021/06/30 09:44:08;;;;;;;1.70;0.20;;;20.70;99.90;;;;;;5054197;28;20032;-79
2021/06/30 09:46:35;;;;;;;0.25;0.25;;;20.70;99.90;;;;;;5061428;28;20025;-78
2021/06/30 09:49:15;;;;;;;0.10;0.10;;;21.00;99.90;;;;;;5060613;28;20056;-78
2021/06/30 09:51:43;;;;;;;0.57;0.30;;;21.00;99.90;;;;;;5059507;28;20119;-78
2021/06/30 09:54:14;;;;;;;0.15;0.10;;;20.90;99.90;;;;;;5068447;28;20036;-78
2021/06/30 09:56:57;;;;;;;1.02;0.30;;;20.50;99.90;;;;;;5067514;28;20025;-78
2021/06/30 09:59:25;;;;;;;0.50;0.40;;;20.40;99.90;;;;;;5053965;28;20113;-78
2021/06/30 10:01:57;;;;;;;0.17;0.17;;;20.10;99.90;;;;;;5047958;28;20056;-77
2021/06/30 10:04:30;;;;;;;0.30;0.28;;;20.10;99.90;;;;;;5040822;28;20029;-78
2021/06/30 10:07:11;;;;;;;0.20;0.20;;;19.70;99.90;;;;;;5063085;28;20024;-77
2021/06/30 10:09:38;;;;;;;;;;;19.70;99.90;;;;;;5040798;28;20033;-79
2021/06/30 10:12:07;;;;;;;0.40;0.38;;;19.90;99.90;;;;;;5065930;28;19908;-78
2021/06/30 10:14:34;;;;;;;0.38;0.28;;;19.90;99.90;;;;;;5049141;28;20071;-78
2021/06/30 10:17:00;;;;;;;0.28;0.20;;;20.30;99.90;;;;;;5056534;28;20128;-78
2021/06/30 10:19:26;;;;;;;1.17;0.20;;;20.60;99.90;;;;;;5053613;28;20048;-80
2021/06/30 10:21:52;;;;;;;0.55;0.20;;;20.80;99.90;;;;;;5065450;28;20035;-78
2021/06/30 10:24:18;;;;;;;0.30;0.30;;;20.70;99.90;;;;;;5064457;28;20029;-78
2021/06/30 10:26:44;;;;;;;0.25;0.20;;;20.90;99.90;;;;;;5042777;28;20031;-77
2021/06/30 10:29:11;;;;;;;0.45;0.25;;;21.20;99.90;;;;;;5058472;28;20111;-79
2021/06/30 10:31:38;;;;;;;0.20;0.20;;;21.60;92.20;;;;;;5048771;28;20024;-78
2021/06/30 10:34:06;;;;;;;0.52;0.20;;;21.90;99.30;;;;;;5064383;28;20024;-78
2021/06/30 10:36:53;;;;;;;0.20;0.20;;;21.60;46.50;;;;;;5059050;28;20067;-78
2021/06/30 10:39:38;;;;;;;0.40;0.20;;;21.90;48.70;;;;;;5052267;28;20017;-78
2021/06/30 10:42:43;;;;;;;0.20;0.20;;;21.70;30.60;;;;;;5025875;28;20517;-78
2021/06/30 10:45:17;;;;;;;0.65;0.20;;;21.30;76.70;;;;;;5063186;28;20433;-78
2021/06/30 10:47:47;;;;;;;0.38;0.28;;;21.10;37.10;;;;;;5049239;28;20494;-78
2021/06/30 10:50:47;;;;;;;0.60;0.20;;;21.60;71.40;;;;;;5043516;28;20025;-79
2021/06/30 10:53:15;;;;;;;0.52;0.30;;;21.80;13.20;;;;;;5015572;28;20432;-77
2021/06/30 10:55:48;;;;;;;0.22;0.20;;;22.50;1.00;;;;;;5063186;28;20021;-77
2021/06/30 10:58:18;;;;;;;0.10;0.10;;;22.40;1.00;;;;;;5066934;28;20023;-78
2021/06/30 11:01:04;;;;;;;0.60;0.20;;;22.00;1.00;;;;;;5059208;28;20017;-77
2021/06/30 11:03:43;;;;;;;0.28;0.28;;;21.60;1.00;;;;;;5064707;28;20045;-79
2021/06/30 11:06:14;;;;;;;0.40;0.40;;;20.80;1.00;;;;;;5061222;28;20017;-78
2021/06/30 11:08:46;;;;;;;0.82;0.30;;;20.60;99.90;;;;;;5067154;28;20033;-77
2021/06/30 11:11:17;;;;;;;0.68;0.68;;;20.20;99.90;;;;;;5073160;28;20029;-78
2021/06/30 11:14:01;;;;;;;0.43;0.25;;;20.00;99.90;;;;;;5069562;28;20028;-79
2021/06/30 11:16:47;;;;;;;0.63;0.30;;;19.80;99.90;;;;;;5047400;28;20032;-78
2021/06/30 11:19:15;;;;;;;0.45;0.32;;;19.60;99.90;;;;;;5056896;28;20538;-79
2021/06/30 11:21:58;;;;;;;0.20;0.20;;;19.70;99.90;;;;;;5071182;28;20024;-78
2021/06/30 11:24:33;;;;;;;0.30;0.30;;;19.70;99.90;;;;;;5058719;28;20056;-79
2021/06/30 11:26:59;;;;;;;1.70;0.40;;;20.00;99.90;;;;;;5060344;28;20059;-78
2021/06/30 11:29:51;;;;;;;2.08;0.40;;;20.40;99.90;;;;;;5071596;28;20032;-77
2021/06/30 11:32:32;;;;;;;0.30;0.30;;;20.60;99.90;;;;;;5064114;28;20494;-77
2021/06/30 11:34:59;;;;;;;0.30;0.30;;;20.60;99.90;;;;;;5053629;28;20338;-77
2021/06/30 11:37:26;;;;;;;0.65;0.47;;;21.00;99.90;;;;;;5053960;28;20030;-79
2021/06/30 11:39:59;;;;;;;0.30;0.25;;;20.70;99.90;;;;;;5051269;28;20034;-79
2021/06/30 11:42:41;;;;;;;0.63;0.30;;;20.70;99.90;;;;;;5069300;28;20024;-78
2021/06/30 11:45:18;;;;;;;0.28;0.28;;;20.70;99.90;;;;;;5054285;28;20032;-79
2021/06/30 11:47:46;;;;;;;0.40;0.28;;;20.80;99.90;;;;;;5072333;28;20142;-77
2021/06/30 11:50:17;;;;;;;0.20;0.20;;;20.80;99.90;;;;;;5055366;28;20028;-78
2021/06/30 11:52:44;;;;;;;;;;;20.80;61.70;;;;;;5071094;28;20029;-78
2021/06/30 11:55:09;;;;;;;0.32;0.32;;;20.90;44.10;;;;;;5071628;28;19912;-79
2021/06/30 11:57:56;;;;;;;0.82;0.30;;;21.30;30.00;;;;;;5070778;28;20035;-77
2021/06/30 12:00:23;;;;;;;0.75;0.30;;;21.30;16.00;;;;;;5039686;28;20035;-78
2021/06/30 12:02:51;;;;;;;0.20;0.20;;;20.80;25.10;;;;;;5050511;28;20062;-77
2021/06/30 12:05:18;;;;;;;0.30;0.30;;;20.60;94.70;;;;;;5057512;28;20036;-79
2021/06/30 12:07:45;;;;;;;1.08;0.50;;;20.20;99.90;;;;;;5056924;28;20494;-76
2021/06/30 12:10:12;;;;;;;0.50;0.43;;;20.00;99.90;;;;;;5062618;28;20067;-79
2021/06/30 12:12:38;;;;;;;0.80;0.45;;;19.70;1.00;;;;;;5057253;28;20393;-78
2021/06/30 12:15:06;;;;;;;1.20;0.70;;;19.90;99.90;;;;;;5058541;28;20116;-78
2021/06/30 12:17:32;;;;;;;1.27;0.75;;;20.10;87.90;;;;;;5066976;28;20397;-77
2021/06/30 12:20:00;;;;;;;1.23;0.60;;;20.40;99.90;;;;;;5067049;28;20048;-78
2021/06/30 12:22:39;;;;;;;1.02;0.80;;;20.50;99.90;;;;;;5063456;28;20545;-77
2021/06/30 12:25:12;;;;;;;1.10;0.50;;;20.50;99.90;;;;;;5056228;28;20081;-78
2021/06/30 12:27:42;;;;;;;1.85;0.80;;;20.60;99.90;;;;;;5069940;28;20031;-77
2021/06/30 12:30:22;;;;;;;0.70;0.40;;;20.80;99.90;;;;;;5075675;28;20033;-77
2021/06/30 12:32:52;;;;;;;5.82;1.20;;;20.70;99.90;;;;;;5068891;28;20263;-78
2021/06/30 12:35:29;;;;;;;3.13;0.95;;;20.50;98.60;;;;;;5061944;28;20029;-78
2021/06/30 12:37:59;;;;;;;0.40;0.40;;;20.40;99.90;;;;;;5062434;28;20075;-78
2021/06/30 12:40:25;;;;;;;0.63;0.40;;;20.40;99.90;;;;;;5073500;28;20024;-79
2021/06/30 12:42:54;;;;;;;1.58;0.50;;;20.30;99.90;;;;;;5073849;28;20031;-79
2021/06/30 12:45:22;;;;;;;0.63;0.50;;;20.40;99.90;;;;;;5053945;28;20078;-78
2021/06/30 12:47:52;;;;;;;0.40;0.40;;;20.30;99.90;;;;;;5073493;28;20032;-79
2021/06/30 12:50:30;;;;;;;0.55;0.30;;;20.40;28.30;;;;;;5053671;28;20108;-79
2021/06/30 12:53:18;;;;;;;0.50;0.25;;;20.80;1.00;;;;;;5070347;28;20397;-79
2021/06/30 12:55:58;;;;;;;0.22;0.20;;;20.80;99.90;;;;;;5041562;28;20035;-78
2021/06/30 12:58:47;;;;;;;0.30;0.30;;;21.20;99.90;;;;;;5054636;28;20373;-78
2021/06/30 13:01:15;;;;;;;0.30;0.20;;;21.40;99.90;;;;;;5054513;28;20379;-78